Time;durP1;ratioP1;P1;durP2;ratioP2;P2;SDS_P1;SDS_P2;PMS_P1;PMS_P2;Temp;Humidity;BMP_temperature;BMP_pressure;BME280_temperature;BME280_humidity;BME280_pressure;Samples;Min_cycle;Max_cycle;Signal;HPM_P1;HPM_P2
2023/03/29 00:00:26;;;;;;;7.83;3.50;;;5.50;99.90;;;;;;5071574;28;20035;-51
2023/03/29 00:02:52;;;;;;;5.43;2.87;;;5.60;99.90;;;;;;5071836;28;20024;-53
2023/03/29 00:05:21;;;;;;;7.20;2.83;;;5.50;99.90;;;;;;5053798;28;20083;-53
2023/03/29 00:08:00;;;;;;;6.63;2.80;;;5.60;99.90;;;;;;5071729;28;20125;-50
2023/03/29 00:10:27;;;;;;;7.32;2.88;;;5.50;99.90;;;;;;5071702;28;20033;-54
2023/03/29 00:12:53;;;;;;;6.87;2.93;;;5.60;99.90;;;;;;5072117;28;20086;-48
2023/03/29 00:15:21;;;;;;;7.47;3.07;;;5.60;99.90;;;;;;5071559;28;20024;-52
2023/03/29 00:17:46;;;;;;;6.80;3.00;;;5.50;99.90;;;;;;5071413;28;20119;-51
2023/03/29 00:20:12;;;;;;;5.47;2.90;;;5.50;99.90;;;;;;5071312;28;20120;-51
2023/03/29 00:22:40;;;;;;;7.73;3.13;;;5.60;99.90;;;;;;5071456;28;20033;-51
2023/03/29 00:25:10;;;;;;;6.97;2.67;;;5.60;99.90;;;;;;5071222;28;20052;-53
2023/03/29 00:27:36;;;;;;;6.47;2.40;;;5.60;99.90;;;;;;5071458;28;20032;-52
2023/03/29 00:30:04;;;;;;;6.60;3.90;;;5.60;99.90;;;;;;5071179;28;20086;-51
2023/03/29 00:32:30;;;;;;;7.87;3.03;;;5.70;99.90;;;;;;5071406;28;20038;-50
2023/03/29 00:34:56;;;;;;;6.73;2.93;;;5.70;99.90;;;;;;5071057;28;20038;-53
2023/03/29 00:37:25;;;;;;;7.50;3.20;;;5.60;99.90;;;;;;5070868;28;20033;-50
2023/03/29 00:39:52;;;;;;;7.13;2.80;;;5.70;99.90;;;;;;5070838;28;20029;-53
2023/03/29 00:42:19;;;;;;;6.97;3.17;;;5.70;99.90;;;;;;5071098;28;20032;-52
2023/03/29 00:44:58;;;;;;;5.70;2.30;;;5.60;99.90;;;;;;5070852;28;20023;-53
2023/03/29 00:47:47;;;;;;;6.50;3.00;;;5.70;99.90;;;;;;5070783;28;20039;-49
2023/03/29 00:50:17;;;;;;;10.75;3.05;;;5.60;99.90;;;;;;5064267;28;20058;-49
2023/03/29 00:52:53;;;;;;;5.77;2.63;;;5.60;99.90;;;;;;5070898;28;20033;-52
2023/03/29 00:55:22;;;;;;;8.57;2.73;;;5.70;99.90;;;;;;5052531;28;20036;-52
2023/03/29 00:57:52;;;;;;;5.23;2.33;;;5.70;99.90;;;;;;5052215;28;20032;-47
2023/03/29 01:00:21;;;;;;;6.33;2.90;;;5.70;99.90;;;;;;5070418;28;20107;-52
2023/03/29 01:02:53;;;;;;;6.87;3.07;;;5.70;99.90;;;;;;5070649;28;20025;-49
2023/03/29 01:05:29;;;;;;;6.27;2.70;;;5.70;99.90;;;;;;5070681;28;20033;-51
2023/03/29 01:08:24;;;;;;;6.33;2.80;;;5.60;99.90;;;;;;5070294;28;20037;-47
2023/03/29 01:11:01;;;;;;;6.90;2.67;;;5.60;99.90;;;;;;5070386;28;20032;-50
2023/03/29 01:14:04;;;;;;;6.03;2.60;;;5.60;99.90;;;;;;5052314;28;20028;-49
2023/03/29 01:16:33;;;;;;;5.60;2.43;;;5.70;99.90;;;;;;5037636;28;20127;-50
2023/03/29 01:18:59;;;;;;;5.87;2.50;;;5.70;99.90;;;;;;5052470;28;20025;-48
2023/03/29 01:21:36;;;;;;;9.30;2.63;;;5.70;99.90;;;;;;5070309;28;20462;-51
2023/03/29 01:24:14;;;;;;;8.73;2.93;;;5.70;99.90;;;;;;5052280;28;20025;-52
2023/03/29 01:26:52;;;;;;;6.57;2.50;;;5.70;99.90;;;;;;5052246;28;20102;-50
2023/03/29 01:29:47;;;;;;;6.63;2.50;;;5.70;99.90;;;;;;5052411;28;20031;-52
2023/03/29 01:32:34;;;;;;;6.73;2.20;;;5.70;99.90;;;;;;5064566;28;20041;-50
2023/03/29 01:35:12;;;;;;;6.90;2.30;;;5.70;99.90;;;;;;5070139;28;20021;-50
2023/03/29 01:38:13;;;;;;;6.53;2.37;;;5.70;99.90;;;;;;5052053;28;20040;-51
2023/03/29 01:40:39;;;;;;;5.87;2.30;;;5.70;99.90;;;;;;5027777;28;20458;-48
2023/03/29 01:43:05;;;;;;;7.80;2.63;;;5.80;99.90;;;;;;5061473;28;20067;-51
2023/03/29 01:45:46;;;;;;;8.80;2.90;;;5.80;99.90;;;;;;5069916;28;20036;-52
2023/03/29 01:48:26;;;;;;;4.63;2.50;;;5.80;99.90;;;;;;5069934;28;20028;-48
2023/03/29 01:51:12;;;;;;;5.13;2.50;;;5.80;99.90;;;;;;5069991;28;20032;-50
2023/03/29 01:53:59;;;;;;;8.27;2.70;;;5.80;99.90;;;;;;5070112;28;20036;-49
2023/03/29 01:56:28;;;;;;;8.23;2.53;;;5.80;99.90;;;;;;5052011;28;20082;-52
2023/03/29 01:59:01;;;;;;;6.40;2.60;;;5.90;99.90;;;;;;5052059;28;20485;-48
2023/03/29 02:01:33;;;;;;;4.90;2.40;;;5.90;99.90;;;;;;5070222;28;20042;-49
2023/03/29 02:04:03;;;;;;;6.53;2.50;;;5.90;99.90;;;;;;5069783;28;20029;-49
2023/03/29 02:06:32;;;;;;;4.33;2.20;;;5.90;99.90;;;;;;5051882;28;20553;-52
2023/03/29 02:09:00;;;;;;;4.43;2.20;;;5.90;99.90;;;;;;5053122;28;20393;-48
2023/03/29 02:11:28;;;;;;;5.83;2.60;;;6.00;99.90;;;;;;5055694;28;20465;-50
2023/03/29 02:13:55;;;;;;;9.23;2.77;;;5.90;99.90;;;;;;5055515;28;20029;-50
2023/03/29 02:16:21;;;;;;;5.40;2.30;;;5.90;99.90;;;;;;5073374;28;20039;-50
2023/03/29 02:18:49;;;;;;;6.70;2.67;;;5.90;99.90;;;;;;5073434;28;20028;-49
2023/03/29 02:21:39;;;;;;;7.60;2.87;;;5.90;99.90;;;;;;5073607;28;20032;-50
2023/03/29 02:24:08;;;;;;;6.33;2.50;;;6.00;99.90;;;;;;5073151;28;20036;-52
2023/03/29 02:26:35;;;;;;;5.70;2.80;;;6.00;99.90;;;;;;5055134;28;20048;-51
2023/03/29 02:29:01;;;;;;;6.83;2.40;;;6.10;99.90;;;;;;5055389;28;20115;-48
2023/03/29 02:31:56;;;;;;;8.30;2.87;;;6.10;99.90;;;;;;5073170;28;20063;-47
2023/03/29 02:34:28;;;;;;;4.80;2.47;;;6.10;99.90;;;;;;5067116;28;20198;-50
2023/03/29 02:37:09;;;;;;;5.53;2.53;;;6.10;99.90;;;;;;5054903;28;20032;-53
2023/03/29 02:39:37;;;;;;;5.37;2.47;;;6.10;99.90;;;;;;5073166;28;20024;-50
2023/03/29 02:42:04;;;;;;;6.93;2.60;;;6.10;99.90;;;;;;5055077;28;20059;-50
2023/03/29 02:44:35;;;;;;;4.97;2.53;;;6.00;99.90;;;;;;5072852;28;20025;-48
2023/03/29 02:47:17;;;;;;;7.97;2.83;;;6.00;99.90;;;;;;5073247;28;20032;-46
2023/03/29 02:49:43;;;;;;;6.60;2.80;;;6.10;99.90;;;;;;5055023;28;20465;-51
2023/03/29 02:52:14;;;;;;;6.53;2.40;;;6.10;99.90;;;;;;5055112;28;20029;-50
2023/03/29 02:54:42;;;;;;;6.77;3.00;;;6.10;99.90;;;;;;5054754;28;20033;-52
2023/03/29 02:57:09;;;;;;;7.43;2.83;;;6.20;99.90;;;;;;5072568;28;20036;-52
2023/03/29 02:59:37;;;;;;;5.50;2.43;;;6.20;99.90;;;;;;5072632;28;20107;-51
2023/03/29 03:02:04;;;;;;;8.37;2.83;;;6.20;99.90;;;;;;5072619;28;20512;-49
2023/03/29 03:04:32;;;;;;;4.63;2.50;;;6.20;99.90;;;;;;5054390;28;20073;-51
2023/03/29 03:06:57;;;;;;;8.13;2.60;;;6.30;99.90;;;;;;5072426;28;20033;-51
2023/03/29 03:09:24;;;;;;;8.90;2.83;;;6.30;99.90;;;;;;5054568;28;20123;-47
2023/03/29 03:11:52;;;;;;;6.63;2.80;;;6.30;99.90;;;;;;5054871;28;20481;-51
2023/03/29 03:14:21;;;;;;;5.23;2.70;;;6.40;99.90;;;;;;5072325;28;20040;-51
2023/03/29 03:16:48;;;;;;;7.00;2.70;;;6.40;99.90;;;;;;5054173;28;20182;-52
2023/03/29 03:19:14;;;;;;;7.10;2.70;;;6.40;99.90;;;;;;5054118;28;20032;-53
2023/03/29 03:21:40;;;;;;;6.67;3.20;;;6.40;99.90;;;;;;5054215;28;20057;-52
2023/03/29 03:24:06;;;;;;;7.17;2.80;;;6.40;99.90;;;;;;5054156;28;20036;-49
2023/03/29 03:26:34;;;;;;;7.53;3.00;;;6.40;99.90;;;;;;5054085;28;20025;-52
2023/03/29 03:29:00;;;;;;;5.77;2.50;;;6.40;99.90;;;;;;5054297;28;20027;-49
2023/03/29 03:31:45;;;;;;;7.37;2.80;;;6.40;99.90;;;;;;5072499;28;20030;-47
2023/03/29 03:34:29;;;;;;;8.00;3.13;;;6.40;99.90;;;;;;5072227;28;20090;-48
2023/03/29 03:36:56;;;;;;;7.70;2.93;;;6.50;99.90;;;;;;5071920;28;20032;-48
2023/03/29 03:39:22;;;;;;;6.00;2.90;;;6.60;99.90;;;;;;5054164;28;20082;-48
2023/03/29 03:41:48;;;;;;;6.53;3.20;;;6.60;99.90;;;;;;5054206;28;20047;-51
2023/03/29 03:44:16;;;;;;;6.90;3.00;;;6.60;99.90;;;;;;5053852;28;20066;-48
2023/03/29 03:46:44;;;;;;;7.40;3.40;;;6.70;99.90;;;;;;5053629;28;20033;-46
2023/03/29 03:49:10;;;;;;;5.33;2.40;;;6.60;99.90;;;;;;5053869;28;20024;-52
2023/03/29 03:51:41;;;;;;;7.00;2.57;;;6.70;99.90;;;;;;5071696;28;20029;-52
2023/03/29 03:54:07;;;;;;;8.50;2.70;;;6.70;99.90;;;;;;5053796;28;20025;-51
2023/03/29 03:56:33;;;;;;;8.03;3.57;;;6.70;99.90;;;;;;5071633;28;20032;-49
2023/03/29 03:59:27;;;;;;;6.93;2.70;;;6.70;99.90;;;;;;5043672;28;20512;-48
2023/03/29 04:02:00;;;;;;;7.57;3.30;;;6.70;99.90;;;;;;5053393;28;20052;-52
2023/03/29 04:04:26;;;;;;;4.97;2.60;;;6.60;99.90;;;;;;5053655;28;20033;-52
2023/03/29 04:07:02;;;;;;;6.20;2.80;;;6.60;99.90;;;;;;5053430;28;20063;-49
2023/03/29 04:09:32;;;;;;;6.93;2.67;;;6.60;99.90;;;;;;5071559;28;20492;-49
2023/03/29 04:12:22;;;;;;;6.70;2.93;;;6.60;99.90;;;;;;5053463;28;20029;-49
2023/03/29 04:14:49;;;;;;;9.57;3.20;;;6.60;99.90;;;;;;5053330;28;20373;-51
2023/03/29 04:17:19;;;;;;;7.40;3.20;;;6.50;99.90;;;;;;5053149;28;20181;-47
2023/03/29 04:19:54;;;;;;;6.53;2.83;;;6.50;99.90;;;;;;5071318;28;20032;-48
2023/03/29 04:22:20;;;;;;;10.63;4.20;;;6.50;99.90;;;;;;5053407;28;20024;-49
2023/03/29 04:24:47;;;;;;;11.37;3.40;;;6.50;99.90;;;;;;5053338;28;20473;-47
2023/03/29 04:27:30;;;;;;;8.50;3.57;;;6.50;99.90;;;;;;5052898;28;20504;-50
2023/03/29 04:29:57;;;;;;;12.00;3.80;;;6.50;99.90;;;;;;5053174;28;20093;-49
2023/03/29 04:32:46;;;;;;;7.00;3.83;;;6.50;99.90;;;;;;5070301;28;20028;-48
2023/03/29 04:35:11;;;;;;;9.93;3.77;;;6.50;99.90;;;;;;5052970;28;20031;-46
2023/03/29 04:37:39;;;;;;;7.13;3.57;;;6.40;99.90;;;;;;5052672;28;20404;-49
2023/03/29 04:40:08;;;;;;;8.90;4.00;;;6.30;99.90;;;;;;5052898;28;20621;-47
2023/03/29 04:42:46;;;;;;;;;;;6.30;99.90;;;;;;5053725;28;20033;-47
2023/03/29 04:45:13;;;;;;;7.83;4.03;;;6.30;99.90;;;;;;5052789;28;19908;-53
2023/03/29 04:48:00;;;;;;;8.70;4.20;;;6.30;99.90;;;;;;5052655;28;20405;-54
2023/03/29 04:50:27;;;;;;;7.93;4.17;;;6.20;99.90;;;;;;5052735;28;20128;-52
2023/03/29 04:52:53;;;;;;;10.97;4.80;;;6.20;99.90;;;;;;5052653;28;20064;-47
2023/03/29 04:55:19;;;;;;;9.23;4.97;;;6.10;99.90;;;;;;5052483;28;20028;-52
2023/03/29 04:57:54;;;;;;;11.43;5.77;;;6.00;99.90;;;;;;5052446;28;20051;-51
2023/03/29 05:00:30;;;;;;;10.13;6.03;;;6.00;99.90;;;;;;5052454;28;20947;-51
2023/03/29 05:03:24;;;;;;;12.97;9.00;;;6.00;99.90;;;;;;5052424;28;20105;-52
2023/03/29 05:06:06;;;;;;;15.77;10.93;;;5.90;99.90;;;;;;5070553;28;20031;-51
2023/03/29 05:08:38;;;;;;;15.47;9.53;;;5.90;99.90;;;;;;5052237;28;20035;-53
2023/03/29 05:11:12;;;;;;;;;;;5.80;99.90;;;;;;5053195;28;20496;-53
2023/03/29 05:13:39;;;;;;;13.17;7.20;;;5.80;99.90;;;;;;5052241;28;19908;-50
2023/03/29 05:16:06;;;;;;;12.03;6.60;;;5.80;99.90;;;;;;5052713;28;20470;-51
2023/03/29 05:18:32;;;;;;;13.67;6.60;;;5.80;99.90;;;;;;5051909;28;20029;-51
2023/03/29 05:20:58;;;;;;;13.73;6.33;;;5.80;99.90;;;;;;5070375;28;20029;-49
2023/03/29 05:23:27;;;;;;;15.60;6.57;;;5.70;99.90;;;;;;5052136;28;20500;-52
2023/03/29 05:26:29;;;;;;;11.10;6.40;;;5.80;99.90;;;;;;5007837;28;20038;-49
2023/03/29 05:28:54;;;;;;;11.73;6.60;;;5.70;99.90;;;;;;5057242;28;20447;-52
2023/03/29 05:31:21;;;;;;;15.30;7.53;;;5.70;99.90;;;;;;5052154;28;20520;-53
2023/03/29 05:33:51;;;;;;;14.87;7.40;;;5.80;99.90;;;;;;5051939;28;20397;-49
2023/03/29 05:36:18;;;;;;;11.87;6.80;;;5.80;99.90;;;;;;5070365;28;20029;-48
2023/03/29 05:38:48;;;;;;;13.83;7.07;;;5.80;99.90;;;;;;5070121;28;20035;-51
2023/03/29 05:41:14;;;;;;;20.90;8.27;;;5.90;99.90;;;;;;5052156;28;20580;-52
2023/03/29 05:43:52;;;;;;;18.77;7.10;;;5.80;99.90;;;;;;5071192;28;20025;-51
2023/03/29 05:46:21;;;;;;;13.82;7.97;;;5.80;99.90;;;;;;5055984;28;20401;-50
2023/03/29 05:48:51;;;;;;;16.88;7.88;;;5.90;99.90;;;;;;5056245;28;20431;-53
2023/03/29 05:51:18;;;;;;;14.70;6.63;;;5.90;99.90;;;;;;5055979;28;20032;-48
2023/03/29 05:53:44;;;;;;;18.80;7.70;;;5.90;99.90;;;;;;5073817;28;20035;-50
2023/03/29 05:56:10;;;;;;;14.67;7.83;;;6.00;99.90;;;;;;5056013;28;20032;-47
2023/03/29 05:58:38;;;;;;;23.27;11.13;;;6.00;99.90;;;;;;5055480;28;20101;-48
2023/03/29 06:01:09;;;;;;;14.27;7.83;;;6.00;99.90;;;;;;5055763;28;20473;-50
2023/03/29 06:03:56;;;;;;;14.07;7.73;;;6.10;99.90;;;;;;5055770;28;20036;-49
2023/03/29 06:06:26;;;;;;;11.37;6.27;;;6.10;99.90;;;;;;5055689;28;20033;-49
2023/03/29 06:08:51;;;;;;;15.73;7.17;;;6.20;99.90;;;;;;5055667;28;20040;-50
2023/03/29 06:11:26;;;;;;;13.33;7.20;;;6.20;99.90;;;;;;5055701;28;20381;-52
2023/03/29 06:14:12;;;;;;;13.70;7.10;;;6.20;99.90;;;;;;5069215;28;20051;-47
2023/03/29 06:16:43;;;;;;;14.37;7.07;;;6.20;99.90;;;;;;5055148;28;20032;-52
2023/03/29 06:19:11;;;;;;;14.30;6.70;;;6.20;99.90;;;;;;5055446;28;20036;-54
2023/03/29 06:21:38;;;;;;;12.80;6.63;;;6.30;99.90;;;;;;5055266;28;20052;-49
2023/03/29 06:24:05;;;;;;;11.13;6.33;;;6.30;99.90;;;;;;5055363;28;20025;-50
2023/03/29 06:26:37;;;;;;;12.37;6.53;;;6.40;99.90;;;;;;5055138;28;20024;-54
2023/03/29 06:29:03;;;;;;;9.47;5.27;;;6.40;99.90;;;;;;5055353;28;20116;-51
2023/03/29 06:31:30;;;;;;;9.20;5.33;;;6.50;99.90;;;;;;5055166;28;20596;-52
2023/03/29 06:33:57;;;;;;;10.60;5.10;;;6.60;99.90;;;;;;5055197;28;20392;-49
2023/03/29 06:36:51;;;;;;;11.97;5.70;;;6.50;99.90;;;;;;5055077;28;20115;-50
2023/03/29 06:39:19;;;;;;;12.52;5.72;;;6.60;99.90;;;;;;5055130;28;20481;-52
2023/03/29 06:42:08;;;;;;;10.55;5.93;;;6.60;99.90;;;;;;5071371;28;20488;-51
2023/03/29 06:44:54;;;;;;;15.37;5.90;;;6.60;99.90;;;;;;5072431;28;20096;-48
2023/03/29 06:47:27;;;;;;;11.10;5.20;;;6.70;99.90;;;;;;5054976;28;20086;-54
2023/03/29 06:49:53;;;;;;;11.50;5.20;;;6.70;99.90;;;;;;5054892;28;20028;-48
2023/03/29 06:52:29;;;;;;;9.80;4.87;;;6.80;99.90;;;;;;5054692;28;20032;-52
2023/03/29 06:54:55;;;;;;;11.10;5.33;;;6.90;99.90;;;;;;5054118;28;20031;-52
2023/03/29 06:57:24;;;;;;;8.80;5.17;;;6.90;99.90;;;;;;5072584;28;20100;-53
2023/03/29 06:59:50;;;;;;;10.80;4.80;;;6.90;99.90;;;;;;5053515;28;20020;-54
2023/03/29 07:02:22;;;;;;;9.87;5.03;;;6.90;99.90;;;;;;5066254;22;20043;-48
2023/03/29 07:05:00;;;;;;;7.87;3.87;;;7.00;99.90;;;;;;5053738;28;20028;-50
2023/03/29 07:07:59;;;;;;;9.93;3.93;;;7.10;99.90;;;;;;5053947;28;20032;-47
2023/03/29 07:10:40;;;;;;;9.40;3.97;;;7.20;99.90;;;;;;5054228;28;20033;-48
2023/03/29 07:13:25;;;;;;;8.33;4.10;;;7.20;99.90;;;;;;5072343;28;20102;-48
2023/03/29 07:15:52;;;;;;;12.80;4.73;;;7.20;99.90;;;;;;5054343;28;20051;-49
2023/03/29 07:18:21;;;;;;;10.95;4.78;;;7.20;99.90;;;;;;5053570;28;20036;-49
2023/03/29 07:20:47;;;;;;;8.50;3.80;;;7.20;99.90;;;;;;5054164;28;20477;-47
2023/03/29 07:23:13;;;;;;;9.33;3.90;;;7.20;99.90;;;;;;5054096;28;20035;-52
2023/03/29 07:25:39;;;;;;;7.77;3.60;;;7.20;99.90;;;;;;5053924;28;20025;-48
2023/03/29 07:28:06;;;;;;;10.90;3.80;;;7.40;99.90;;;;;;5053648;28;20086;-49
2023/03/29 07:30:33;;;;;;;5.63;2.93;;;7.50;99.90;;;;;;5053150;28;20048;-53
2023/03/29 07:33:19;;;;;;;4.73;2.50;;;7.50;99.90;;;;;;5049859;28;20027;-50
2023/03/29 07:35:51;;;;;;;6.73;3.10;;;7.60;99.90;;;;;;5048751;28;20541;-48
2023/03/29 07:38:17;;;;;;;5.33;2.70;;;7.50;99.90;;;;;;5049827;28;20111;-50
2023/03/29 07:41:06;;;;;;;7.10;3.17;;;7.50;99.90;;;;;;5058483;28;20024;-50
2023/03/29 07:44:03;;;;;;;7.60;3.43;;;7.60;99.90;;;;;;5053618;28;20028;-46
2023/03/29 07:46:30;;;;;;;7.03;3.20;;;7.60;99.90;;;;;;5053359;28;20046;-49
2023/03/29 07:48:56;;;;;;;5.60;2.90;;;7.70;99.90;;;;;;5053526;28;20055;-49
2023/03/29 07:51:22;;;;;;;9.33;3.53;;;7.80;99.90;;;;;;5053909;28;20670;-48
2023/03/29 07:53:52;;;;;;;9.23;3.47;;;7.90;99.90;;;;;;5053309;28;20512;-50
2023/03/29 07:56:36;;;;;;;7.33;3.27;;;8.00;99.90;;;;;;5071077;28;20047;-49
2023/03/29 07:59:16;;;;;;;14.47;6.93;;;8.10;99.90;;;;;;5053397;28;20036;-47
2023/03/29 08:01:44;;;;;;;9.30;4.30;;;8.20;99.90;;;;;;5053378;28;20024;-48
2023/03/29 08:04:33;;;;;;;6.72;3.40;;;8.30;99.90;;;;;;5062638;28;20237;-51
2023/03/29 08:07:31;;;;;;;7.93;3.57;;;8.30;99.90;;;;;;5056105;28;20024;-52
2023/03/29 08:10:22;;;;;;;7.30;3.10;;;8.30;99.90;;;;;;5053352;28;20032;-48
2023/03/29 08:12:49;;;;;;;8.03;3.60;;;8.30;99.90;;;;;;5071509;28;20032;-47
2023/03/29 08:15:16;;;;;;;7.17;3.37;;;8.30;99.90;;;;;;5053224;28;20032;-51
2023/03/29 08:17:42;;;;;;;8.03;3.73;;;8.20;99.90;;;;;;5052446;28;20032;-52
2023/03/29 08:20:10;;;;;;;7.97;3.40;;;8.10;99.90;;;;;;5071059;28;20381;-49
2023/03/29 08:22:39;;;;;;;9.00;4.10;;;8.00;99.90;;;;;;5052841;28;20416;-47
2023/03/29 08:25:27;;;;;;;;;;;8.10;99.90;;;;;;5053372;28;20046;-49
2023/03/29 08:27:53;;;;;;;9.50;3.33;;;8.10;99.90;;;;;;5052232;28;19938;-48
2023/03/29 08:30:32;;;;;;;8.43;3.27;;;8.20;99.90;;;;;;5052821;28;20028;-51
2023/03/29 08:32:58;;;;;;;8.33;3.37;;;8.30;99.90;;;;;;5052553;28;20433;-48
2023/03/29 08:35:24;;;;;;;6.20;2.97;;;8.30;99.90;;;;;;5052370;28;20036;-49
2023/03/29 08:38:02;;;;;;;9.83;3.33;;;8.50;99.90;;;;;;5070059;28;20052;-50
2023/03/29 08:40:29;;;;;;;9.50;3.40;;;8.50;99.90;;;;;;5052600;28;20056;-49
2023/03/29 08:43:21;;;;;;;9.60;3.80;;;8.70;99.90;;;;;;5052479;28;20119;-50
2023/03/29 08:46:28;;;;;;;5.67;3.20;;;8.60;99.90;;;;;;5052706;28;20040;-48
2023/03/29 08:49:01;;;;;;;7.80;3.13;;;8.80;99.90;;;;;;5052306;28;20033;-48
2023/03/29 08:51:36;;;;;;;9.17;3.40;;;8.90;99.90;;;;;;5052484;28;20173;-48
2023/03/29 08:54:26;;;;;;;9.70;3.50;;;8.80;99.90;;;;;;5052141;28;20029;-46
2023/03/29 08:57:19;;;;;;;9.47;3.70;;;9.00;99.90;;;;;;5070048;28;20040;-45
2023/03/29 09:00:03;;;;;;;6.30;3.63;;;9.00;99.90;;;;;;5052384;28;20414;-46
2023/03/29 09:02:32;;;;;;;7.30;3.17;;;9.10;99.90;;;;;;5052115;28;20063;-46
2023/03/29 09:05:28;;;;;;;9.60;3.20;;;9.20;99.90;;;;;;5052052;28;20028;-48
2023/03/29 09:08:12;;;;;;;6.70;3.17;;;9.20;99.90;;;;;;5051844;28;20024;-49
2023/03/29 09:11:07;;;;;;;6.97;3.30;;;9.30;99.90;;;;;;5052240;28;20191;-51
2023/03/29 09:13:51;;;;;;;7.40;3.40;;;9.30;99.90;;;;;;4982986;28;20051;-46
2023/03/29 09:16:36;;;;;;;6.53;3.60;;;9.30;99.90;;;;;;5052304;28;20024;-48
2023/03/29 09:19:13;;;;;;;6.90;3.40;;;9.30;99.90;;;;;;5051537;28;20033;-48
2023/03/29 09:22:03;;;;;;;12.30;4.00;;;9.40;99.90;;;;;;5052060;28;20025;-50
2023/03/29 09:25:04;;;;;;;9.63;3.67;;;9.50;99.90;;;;;;5051858;28;20516;-48
2023/03/29 09:28:03;;;;;;;8.87;3.73;;;9.60;99.90;;;;;;5009589;28;20127;-53
2023/03/29 09:31:11;;;;;;;8.93;3.70;;;9.70;99.90;;;;;;5052052;28;20036;-50
2023/03/29 09:33:48;;;;;;;10.00;3.63;;;9.80;99.90;;;;;;5034703;28;20222;-48
2023/03/29 09:36:23;;;;;;;8.63;3.22;;;9.90;99.90;;;;;;5052105;28;20028;-50
2023/03/29 09:38:54;;;;;;;6.57;3.83;;;10.00;99.90;;;;;;5051799;28;20067;-51
2023/03/29 09:41:40;;;;;;;6.43;3.20;;;10.10;99.90;;;;;;5051740;28;20430;-51
2023/03/29 09:44:11;;;;;;;10.40;3.93;;;10.30;99.90;;;;;;5051698;28;20035;-49
2023/03/29 09:46:52;;;;;;;9.20;3.60;;;10.40;99.90;;;;;;5051609;28;20021;-50
2023/03/29 09:49:30;;;;;;;7.77;3.63;;;10.60;99.90;;;;;;5051940;28;20040;-49
2023/03/29 09:52:00;;;;;;;8.10;3.10;;;10.80;99.90;;;;;;5051926;28;20028;-48
2023/03/29 09:54:26;;;;;;;10.03;3.60;;;10.90;99.90;;;;;;5051602;28;20485;-49
2023/03/29 09:57:29;;;;;;;9.17;3.57;;;11.00;99.90;;;;;;5069117;28;20121;-55
2023/03/29 09:59:56;;;;;;;10.93;3.73;;;11.10;99.90;;;;;;5051715;28;20120;-49
2023/03/29 10:02:22;;;;;;;7.77;3.47;;;11.20;99.90;;;;;;5051722;28;20028;-49
2023/03/29 10:04:54;;;;;;;11.60;3.90;;;11.30;99.90;;;;;;5069555;28;20489;-45
2023/03/29 10:07:21;;;;;;;9.43;4.00;;;11.40;99.90;;;;;;5069311;28;20036;-46
2023/03/29 10:09:54;;;;;;;9.47;4.07;;;11.50;99.90;;;;;;5051623;28;20123;-46
2023/03/29 10:12:21;;;;;;;11.57;3.97;;;11.50;99.90;;;;;;5051760;28;20036;-46
2023/03/29 10:14:50;;;;;;;10.93;3.97;;;11.70;99.90;;;;;;5051726;28;20059;-47
2023/03/29 10:17:22;;;;;;;9.77;4.23;;;11.90;99.90;;;;;;5069071;28;20033;-50
2023/03/29 10:19:55;;;;;;;10.10;4.53;;;12.00;99.90;;;;;;5069633;28;20036;-50
2023/03/29 10:22:30;;;;;;;9.13;3.55;;;12.10;99.90;;;;;;5069676;28;20115;-51
2023/03/29 10:24:56;;;;;;;8.98;3.75;;;12.40;99.90;;;;;;5069441;28;20119;-49
2023/03/29 10:27:28;;;;;;;11.52;4.00;;;12.70;99.90;;;;;;5069203;28;20044;-49
2023/03/29 10:29:55;;;;;;;10.45;3.70;;;13.00;99.90;;;;;;5070164;28;20037;-47
2023/03/29 10:32:21;;;;;;;10.55;3.67;;;13.40;99.90;;;;;;5073077;28;20033;-51
2023/03/29 10:34:49;;;;;;;8.70;3.30;;;13.90;99.90;;;;;;5071733;28;20076;-53
2023/03/29 10:37:19;;;;;;;15.07;3.80;;;14.40;99.90;;;;;;5072424;28;20108;-51
2023/03/29 10:39:49;;;;;;;8.05;3.50;;;14.50;99.90;;;;;;5072917;28;20496;-53
2023/03/29 10:42:22;;;;;;;8.60;3.33;;;14.40;99.90;;;;;;5072897;28;20063;-49
2023/03/29 10:44:58;;;;;;;8.88;3.80;;;14.30;99.90;;;;;;5073217;28;20469;-52
2023/03/29 10:47:24;;;;;;;9.45;3.58;;;14.40;99.90;;;;;;5072968;28;20024;-48
2023/03/29 10:49:53;;;;;;;7.00;3.70;;;14.40;99.90;;;;;;5072864;28;20035;-51
2023/03/29 10:52:20;;;;;;;7.28;3.50;;;14.40;99.90;;;;;;5072840;28;20029;-50
2023/03/29 10:54:48;;;;;;;10.35;3.47;;;14.30;99.90;;;;;;5072617;28;20115;-52
2023/03/29 10:57:29;;;;;;;6.35;3.08;;;14.10;99.90;;;;;;5072201;28;20040;-50
2023/03/29 11:00:05;;;;;;;8.30;3.60;;;14.30;99.90;;;;;;5072747;28;20035;-51
2023/03/29 11:03:19;;;;;;;8.35;3.90;;;14.70;99.90;;;;;;5072703;28;20035;-50
2023/03/29 11:05:57;;;;;;;7.50;3.75;;;14.60;99.90;;;;;;5010437;28;20037;-48
2023/03/29 11:08:45;;;;;;;11.55;4.15;;;14.90;99.90;;;;;;4993604;28;20430;-49
2023/03/29 11:11:16;;;;;;;6.97;3.83;;;14.70;99.90;;;;;;5054101;28;20040;-50
2023/03/29 11:13:54;;;;;;;9.27;4.32;;;14.40;99.90;;;;;;5072255;28;20035;-52
2023/03/29 11:16:29;;;;;;;8.48;3.45;;;14.20;99.90;;;;;;5072084;28;20481;-49
2023/03/29 11:19:11;;;;;;;9.52;3.97;;;14.20;99.90;;;;;;5072488;28;20029;-50
2023/03/29 11:21:43;;;;;;;10.23;3.90;;;14.20;99.90;;;;;;5072510;28;20099;-51
2023/03/29 11:24:36;;;;;;;6.65;3.25;;;14.30;99.90;;;;;;5072151;28;20429;-50
2023/03/29 11:27:39;;;;;;;6.97;3.25;;;14.50;99.90;;;;;;5071793;28;20389;-53
2023/03/29 11:30:39;;;;;;;14.82;7.03;;;14.30;99.90;;;;;;5072332;28;20093;-51
2023/03/29 11:33:15;;;;;;;7.22;4.13;;;14.10;99.90;;;;;;5072367;28;20020;-52
2023/03/29 11:36:13;;;;;;;9.02;4.35;;;13.90;99.90;;;;;;5071978;28;20025;-49
2023/03/29 11:38:56;;;;;;;9.83;4.57;;;13.80;99.90;;;;;;5047861;28;20041;-48
2023/03/29 11:41:32;;;;;;;11.20;4.15;;;13.60;99.90;;;;;;5066872;28;20032;-51
2023/03/29 11:44:04;;;;;;;8.50;4.32;;;13.60;99.90;;;;;;5050649;28;20028;-53
2023/03/29 11:46:38;;;;;;;11.18;4.43;;;13.60;99.90;;;;;;5068196;28;20396;-49
2023/03/29 11:49:20;;;;;;;10.25;4.22;;;13.70;99.90;;;;;;5068739;28;20028;-48
2023/03/29 11:52:00;;;;;;;8.23;3.70;;;14.00;99.90;;;;;;5071690;28;20028;-51
2023/03/29 11:54:41;;;;;;;8.57;4.00;;;14.30;99.90;;;;;;5071745;28;20029;-52
2023/03/29 11:57:41;;;;;;;8.10;3.67;;;14.40;99.90;;;;;;5071118;28;20035;-51
2023/03/29 12:00:22;;;;;;;7.88;3.30;;;14.50;99.90;;;;;;5071722;28;20039;-52
2023/03/29 12:02:58;;;;;;;7.82;3.60;;;14.50;99.90;;;;;;5071489;28;20378;-50
2023/03/29 12:05:44;;;;;;;6.47;3.60;;;14.60;99.90;;;;;;5071585;28;20020;-50
2023/03/29 12:08:13;;;;;;;6.22;2.80;;;14.50;99.90;;;;;;5070733;28;20127;-50
2023/03/29 12:11:08;;;;;;;7.13;3.17;;;14.60;99.90;;;;;;5071361;28;20028;-48
2023/03/29 12:13:43;;;;;;;7.78;2.80;;;14.40;99.90;;;;;;5062134;28;20041;-51
2023/03/29 12:16:18;;;;;;;9.43;2.88;;;14.50;99.90;;;;;;5071327;28;20032;-49
2023/03/29 12:18:50;;;;;;;7.93;3.10;;;14.70;99.90;;;;;;5080677;28;20043;-48
2023/03/29 12:21:20;;;;;;;7.93;2.55;;;14.90;99.90;;;;;;5071270;28;20029;-47
2023/03/29 12:23:47;;;;;;;8.25;2.78;;;15.00;99.90;;;;;;5053098;28;20067;-47
2023/03/29 12:26:44;;;;;;;9.70;3.03;;;14.90;99.90;;;;;;5071455;28;20073;-48
2023/03/29 12:29:35;;;;;;;6.63;2.63;;;14.80;99.90;;;;;;5071033;28;20028;-48
2023/03/29 12:32:15;;;;;;;6.03;2.75;;;14.90;99.90;;;;;;5053475;28;20469;-47
2023/03/29 12:35:10;;;;;;;9.52;2.40;;;15.10;99.90;;;;;;5052710;28;20042;-47
2023/03/29 12:38:10;;;;;;;6.65;2.42;;;15.20;99.90;;;;;;5015647;28;20033;-49
2023/03/29 12:41:17;;;;;;;4.00;2.10;;;15.30;99.90;;;;;;5036668;28;20033;-48
2023/03/29 12:44:03;;;;;;;6.28;2.30;;;15.30;99.90;;;;;;5070908;28;20071;-49
2023/03/29 12:46:40;;;;;;;7.03;2.55;;;15.50;99.90;;;;;;5070360;28;20068;-47
2023/03/29 12:49:16;;;;;;;6.00;2.95;;;15.50;99.90;;;;;;5070828;28;20075;-47
2023/03/29 12:51:42;;;;;;;6.25;2.53;;;15.40;99.90;;;;;;5070550;28;20040;-50
2023/03/29 12:54:16;;;;;;;7.25;2.63;;;15.40;99.90;;;;;;5070165;28;20508;-50
2023/03/29 12:56:56;;;;;;;8.77;2.67;;;15.30;99.90;;;;;;5069897;28;20044;-52
2023/03/29 12:59:42;;;;;;;5.05;2.15;;;15.30;99.90;;;;;;5070509;28;20024;-48
2023/03/29 13:02:14;;;;;;;7.70;2.92;;;15.30;99.90;;;;;;5082937;22;20064;-50
2023/03/29 13:04:42;;;;;;;5.97;2.20;;;15.40;99.90;;;;;;5069943;28;20025;-48
2023/03/29 13:07:43;;;;;;;5.90;2.20;;;15.40;99.90;;;;;;5069435;28;20111;-51
2023/03/29 13:10:38;;;;;;;4.68;2.15;;;15.40;99.90;;;;;;5068104;28;20037;-47
2023/03/29 13:13:15;;;;;;;7.03;2.40;;;15.30;99.90;;;;;;5070408;28;20031;-46
2023/03/29 13:15:43;;;;;;;7.05;2.53;;;15.20;99.90;;;;;;5070364;28;20082;-52
2023/03/29 13:18:24;;;;;;;6.03;3.00;;;15.10;99.90;;;;;;5067242;28;20039;-46
2023/03/29 13:21:04;;;;;;;6.78;2.40;;;15.10;99.90;;;;;;5065948;28;20027;-53
2023/03/29 13:24:17;;;;;;;5.35;2.03;;;15.00;99.90;;;;;;5067314;28;20119;-49
2023/03/29 13:26:57;;;;;;;6.35;2.15;;;15.00;99.90;;;;;;5013336;28;20029;-50
2023/03/29 13:29:49;;;;;;;7.75;2.20;;;15.10;99.90;;;;;;5065554;28;20028;-48
2023/03/29 13:32:40;;;;;;;7.72;2.40;;;15.40;99.90;;;;;;5067493;28;20653;-53
2023/03/29 13:35:21;;;;;;;21.65;3.72;;;15.50;99.90;;;;;;5066998;28;20024;-50